sensor_id;sensor_type;location;lat;lon;timestamp;P1;P2;P0
79689;PMS5003;69156;55.932;-3.238;2023-12-07T00:00:00;9;9;
79689;PMS5003;69156;55.932;-3.238;2023-12-07T00:02:27;7;7;
79689;PMS5003;69156;55.932;-3.238;2023-12-07T00:04:52;7;7;
79689;PMS5003;69156;55.932;-3.238;2023-12-07T00:07:18;7;7;
79689;PMS5003;69156;55.932;-3.238;2023-12-07T00:09:44;9;9;
79689;PMS5003;69156;55.932;-3.238;2023-12-07T00:12:10;9;9;
79689;PMS5003;69156;55.932;-3.238;2023-12-07T00:14:36;5;5;
79689;PMS5003;69156;55.932;-3.238;2023-12-07T00:17:01;5;5;
79689;PMS5003;69156;55.932;-3.238;2023-12-07T00:19:26;7;6;
79689;PMS5003;69156;55.932;-3.238;2023-12-07T00:21:52;5;5;
79689;PMS5003;69156;55.932;-3.238;2023-12-07T00:24:17;5;3;
79689;PMS5003;69156;55.932;-3.238;2023-12-07T00:26:43;5;5;
79689;PMS5003;69156;55.932;-3.238;2023-12-07T00:29:08;5;5;
79689;PMS5003;69156;55.932;-3.238;2023-12-07T00:31:34;3;3;
79689;PMS5003;69156;55.932;-3.238;2023-12-07T00:33:59;3;3;
79689;PMS5003;69156;55.932;-3.238;2023-12-07T00:36:25;5;5;
79689;PMS5003;69156;55.932;-3.238;2023-12-07T00:38:51;7;7;
79689;PMS5003;69156;55.932;-3.238;2023-12-07T00:41:16;12;10;
79689;PMS5003;69156;55.932;-3.238;2023-12-07T00:43:41;6;6;
79689;PMS5003;69156;55.932;-3.238;2023-12-07T00:46:07;11;10;
79689;PMS5003;69156;55.932;-3.238;2023-12-07T00:48:32;10;10;
79689;PMS5003;69156;55.932;-3.238;2023-12-07T00:50:57;12;12;
79689;PMS5003;69156;55.932;-3.238;2023-12-07T00:53:23;10;10;
79689;PMS5003;69156;55.932;-3.238;2023-12-07T00:55:49;9;7;
79689;PMS5003;69156;55.932;-3.238;2023-12-07T00:58:15;11;9;
79689;PMS5003;69156;55.932;-3.238;2023-12-07T01:00:40;11;11;
79689;PMS5003;69156;55.932;-3.238;2023-12-07T01:03:06;7;7;
79689;PMS5003;69156;55.932;-3.238;2023-12-07T01:05:31;7;6;
79689;PMS5003;69156;55.932;-3.238;2023-12-07T01:07:57;6;6;
79689;PMS5003;69156;55.932;-3.238;2023-12-07T01:10:23;6;6;
79689;PMS5003;69156;55.932;-3.238;2023-12-07T01:12:48;3;3;
79689;PMS5003;69156;55.932;-3.238;2023-12-07T01:15:14;3;3;
79689;PMS5003;69156;55.932;-3.238;2023-12-07T01:17:40;3;3;
79689;PMS5003;69156;55.932;-3.238;2023-12-07T01:20:07;2;2;
79689;PMS5003;69156;55.932;-3.238;2023-12-07T01:22:32;3;3;
79689;PMS5003;69156;55.932;-3.238;2023-12-07T01:24:58;2;2;
79689;PMS5003;69156;55.932;-3.238;2023-12-07T01:27:24;1;1;
79689;PMS5003;69156;55.932;-3.238;2023-12-07T01:29:49;1;1;
79689;PMS5003;69156;55.932;-3.238;2023-12-07T01:32:14;2;2;
79689;PMS5003;69156;55.932;-3.238;2023-12-07T01:34:40;1;1;
79689;PMS5003;69156;55.932;-3.238;2023-12-07T01:37:05;2;2;
79689;PMS5003;69156;55.932;-3.238;2023-12-07T01:39:31;1;1;
79689;PMS5003;69156;55.932;-3.238;2023-12-07T01:41:56;2;2;
79689;PMS5003;69156;55.932;-3.238;2023-12-07T01:44:22;1;1;
79689;PMS5003;69156;55.932;-3.238;2023-12-07T01:46:48;2;2;
79689;PMS5003;69156;55.932;-3.238;2023-12-07T01:49:14;2;1;
79689;PMS5003;69156;55.932;-3.238;2023-12-07T01:51:39;1;1;
79689;PMS5003;69156;55.932;-3.238;2023-12-07T01:54:05;1;1;
79689;PMS5003;69156;55.932;-3.238;2023-12-07T01:56:31;1;1;
79689;PMS5003;69156;55.932;-3.238;2023-12-07T01:58:56;2;2;
79689;PMS5003;69156;55.932;-3.238;2023-12-07T02:01:21;2;2;
79689;PMS5003;69156;55.932;-3.238;2023-12-07T02:03:46;1;1;
79689;PMS5003;69156;55.932;-3.238;2023-12-07T02:06:12;2;2;
79689;PMS5003;69156;55.932;-3.238;2023-12-07T02:08:37;2;2;
79689;PMS5003;69156;55.932;-3.238;2023-12-07T02:11:04;2;2;
79689;PMS5003;69156;55.932;-3.238;2023-12-07T02:13:28;1;1;
79689;PMS5003;69156;55.932;-3.238;2023-12-07T02:15:54;2;2;
79689;PMS5003;69156;55.932;-3.238;2023-12-07T02:18:20;2;2;
79689;PMS5003;69156;55.932;-3.238;2023-12-07T02:20:46;3;2;
79689;PMS5003;69156;55.932;-3.238;2023-12-07T02:23:10;5;3;
79689;PMS5003;69156;55.932;-3.238;2023-12-07T02:25:36;3;3;
79689;PMS5003;69156;55.932;-3.238;2023-12-07T02:28:01;3;2;
79689;PMS5003;69156;55.932;-3.238;2023-12-07T02:30:27;1;1;
79689;PMS5003;69156;55.932;-3.238;2023-12-07T02:32:53;3;3;
79689;PMS5003;69156;55.932;-3.238;2023-12-07T02:35:18;1;1;
79689;PMS5003;69156;55.932;-3.238;2023-12-07T02:37:46;5;5;
79689;PMS5003;69156;55.932;-3.238;2023-12-07T02:40:10;3;3;
79689;PMS5003;69156;55.932;-3.238;2023-12-07T02:42:37;3;3;
79689;PMS5003;69156;55.932;-3.238;2023-12-07T02:45:03;2;2;
79689;PMS5003;69156;55.932;-3.238;2023-12-07T02:47:28;3;3;
79689;PMS5003;69156;55.932;-3.238;2023-12-07T02:49:55;2;2;
79689;PMS5003;69156;55.932;-3.238;2023-12-07T02:52:20;1;1;
79689;PMS5003;69156;55.932;-3.238;2023-12-07T02:54:46;3;3;
79689;PMS5003;69156;55.932;-3.238;2023-12-07T02:57:12;2;2;
79689;PMS5003;69156;55.932;-3.238;2023-12-07T02:59:37;3;3;
79689;PMS5003;69156;55.932;-3.238;2023-12-07T03:02:04;2;2;
79689;PMS5003;69156;55.932;-3.238;2023-12-07T03:04:29;1;1;
79689;PMS5003;69156;55.932;-3.238;2023-12-07T03:06:54;2;2;
79689;PMS5003;69156;55.932;-3.238;2023-12-07T03:09:19;2;2;
79689;PMS5003;69156;55.932;-3.238;2023-12-07T03:11:45;1;1;
79689;PMS5003;69156;55.932;-3.238;2023-12-07T03:14:10;2;2;
79689;PMS5003;69156;55.932;-3.238;2023-12-07T03:16:36;1;1;
79689;PMS5003;69156;55.932;-3.238;2023-12-07T03:19:01;1;1;
79689;PMS5003;69156;55.932;-3.238;2023-12-07T03:21:27;3;2;
79689;PMS5003;69156;55.932;-3.238;2023-12-07T03:23:53;2;2;
79689;PMS5003;69156;55.932;-3.238;2023-12-07T03:26:19;2;2;
79689;PMS5003;69156;55.932;-3.238;2023-12-07T03:28:45;2;2;
79689;PMS5003;69156;55.932;-3.238;2023-12-07T03:31:10;2;2;
79689;PMS5003;69156;55.932;-3.238;2023-12-07T03:33:36;1;1;
79689;PMS5003;69156;55.932;-3.238;2023-12-07T03:36:01;1;1;
79689;PMS5003;69156;55.932;-3.238;2023-12-07T03:38:27;2;2;
79689;PMS5003;69156;55.932;-3.238;2023-12-07T03:40:52;3;3;
79689;PMS5003;69156;55.932;-3.238;2023-12-07T03:43:19;2;2;
79689;PMS5003;69156;55.932;-3.238;2023-12-07T03:45:43;5;5;
79689;PMS5003;69156;55.932;-3.238;2023-12-07T03:48:08;2;2;
79689;PMS5003;69156;55.932;-3.238;2023-12-07T03:50:34;3;2;
79689;PMS5003;69156;55.932;-3.238;2023-12-07T03:53:00;1;1;
79689;PMS5003;69156;55.932;-3.238;2023-12-07T03:55:26;2;1;
79689;PMS5003;69156;55.932;-3.238;2023-12-07T03:57:51;2;2;
79689;PMS5003;69156;55.932;-3.238;2023-12-07T04:00:17;2;1;
79689;PMS5003;69156;55.932;-3.238;2023-12-07T04:02:42;1;1;
79689;PMS5003;69156;55.932;-3.238;2023-12-07T04:05:09;5;5;
79689;PMS5003;69156;55.932;-3.238;2023-12-07T04:07:34;5;5;
79689;PMS5003;69156;55.932;-3.238;2023-12-07T04:10:00;3;3;
79689;PMS5003;69156;55.932;-3.238;2023-12-07T04:12:25;3;3;
79689;PMS5003;69156;55.932;-3.238;2023-12-07T04:14:51;3;3;
79689;PMS5003;69156;55.932;-3.238;2023-12-07T04:17:17;2;2;
79689;PMS5003;69156;55.932;-3.238;2023-12-07T04:19:42;3;3;
79689;PMS5003;69156;55.932;-3.238;2023-12-07T04:22:08;3;3;
79689;PMS5003;69156;55.932;-3.238;2023-12-07T04:24:33;2;2;
79689;PMS5003;69156;55.932;-3.238;2023-12-07T04:26:58;3;3;
79689;PMS5003;69156;55.932;-3.238;2023-12-07T04:29:24;3;3;
79689;PMS5003;69156;55.932;-3.238;2023-12-07T04:31:49;6;6;
79689;PMS5003;69156;55.932;-3.238;2023-12-07T04:34:15;3;3;
79689;PMS5003;69156;55.932;-3.238;2023-12-07T04:36:40;3;3;
79689;PMS5003;69156;55.932;-3.238;2023-12-07T04:39:06;3;3;
79689;PMS5003;69156;55.932;-3.238;2023-12-07T04:41:32;3;3;
79689;PMS5003;69156;55.932;-3.238;2023-12-07T04:43:58;3;3;
79689;PMS5003;69156;55.932;-3.238;2023-12-07T04:46:24;3;3;
79689;PMS5003;69156;55.932;-3.238;2023-12-07T04:48:49;3;3;
79689;PMS5003;69156;55.932;-3.238;2023-12-07T04:51:15;2;2;
79689;PMS5003;69156;55.932;-3.238;2023-12-07T04:53:41;3;2;
79689;PMS5003;69156;55.932;-3.238;2023-12-07T04:56:07;3;3;
79689;PMS5003;69156;55.932;-3.238;2023-12-07T04:58:32;5;5;
79689;PMS5003;69156;55.932;-3.238;2023-12-07T05:00:57;5;3;
79689;PMS5003;69156;55.932;-3.238;2023-12-07T05:03:23;5;5;
79689;PMS5003;69156;55.932;-3.238;2023-12-07T05:05:48;6;5;
79689;PMS5003;69156;55.932;-3.238;2023-12-07T05:08:14;6;6;
79689;PMS5003;69156;55.932;-3.238;2023-12-07T05:10:40;6;6;
79689;PMS5003;69156;55.932;-3.238;2023-12-07T05:13:06;2;2;
79689;PMS5003;69156;55.932;-3.238;2023-12-07T05:15:31;3;2;
79689;PMS5003;69156;55.932;-3.238;2023-12-07T05:17:56;1;1;
79689;PMS5003;69156;55.932;-3.238;2023-12-07T05:20:22;2;2;
79689;PMS5003;69156;55.932;-3.238;2023-12-07T05:22:48;2;2;
79689;PMS5003;69156;55.932;-3.238;2023-12-07T05:25:13;1;1;
79689;PMS5003;69156;55.932;-3.238;2023-12-07T05:27:39;0;0;
79689;PMS5003;69156;55.932;-3.238;2023-12-07T05:30:04;1;1;
79689;PMS5003;69156;55.932;-3.238;2023-12-07T05:32:29;2;2;
79689;PMS5003;69156;55.932;-3.238;2023-12-07T05:34:54;3;3;
79689;PMS5003;69156;55.932;-3.238;2023-12-07T05:37:20;1;1;
79689;PMS5003;69156;55.932;-3.238;2023-12-07T05:39:46;2;2;
79689;PMS5003;69156;55.932;-3.238;2023-12-07T05:42:11;2;1;
79689;PMS5003;69156;55.932;-3.238;2023-12-07T05:44:37;1;1;
79689;PMS5003;69156;55.932;-3.238;2023-12-07T05:47:03;5;5;
79689;PMS5003;69156;55.932;-3.238;2023-12-07T05:49:28;3;3;
79689;PMS5003;69156;55.932;-3.238;2023-12-07T05:51:53;5;5;
79689;PMS5003;69156;55.932;-3.238;2023-12-07T05:54:18;2;2;
79689;PMS5003;69156;55.932;-3.238;2023-12-07T05:56:44;3;3;
79689;PMS5003;69156;55.932;-3.238;2023-12-07T05:59:09;1;1;
79689;PMS5003;69156;55.932;-3.238;2023-12-07T06:01:35;1;1;
79689;PMS5003;69156;55.932;-3.238;2023-12-07T06:04:00;2;2;
79689;PMS5003;69156;55.932;-3.238;2023-12-07T06:06:26;5;5;
79689;PMS5003;69156;55.932;-3.238;2023-12-07T06:08:51;9;9;
79689;PMS5003;69156;55.932;-3.238;2023-12-07T06:11:18;1;1;
79689;PMS5003;69156;55.932;-3.238;2023-12-07T06:13:43;2;2;
79689;PMS5003;69156;55.932;-3.238;2023-12-07T06:16:11;5;5;
79689;PMS5003;69156;55.932;-3.238;2023-12-07T06:18:34;1;1;
79689;PMS5003;69156;55.932;-3.238;2023-12-07T06:20:59;2;2;
79689;PMS5003;69156;55.932;-3.238;2023-12-07T06:23:25;2;2;
79689;PMS5003;69156;55.932;-3.238;2023-12-07T06:25:50;3;3;
79689;PMS5003;69156;55.932;-3.238;2023-12-07T06:28:16;2;1;
79689;PMS5003;69156;55.932;-3.238;2023-12-07T06:30:41;2;2;
79689;PMS5003;69156;55.932;-3.238;2023-12-07T06:33:07;3;3;
79689;PMS5003;69156;55.932;-3.238;2023-12-07T06:35:34;6;3;
79689;PMS5003;69156;55.932;-3.238;2023-12-07T06:37:59;3;3;
79689;PMS5003;69156;55.932;-3.238;2023-12-07T06:40:24;3;3;
79689;PMS5003;69156;55.932;-3.238;2023-12-07T06:42:50;2;2;
79689;PMS5003;69156;55.932;-3.238;2023-12-07T06:45:17;3;3;
79689;PMS5003;69156;55.932;-3.238;2023-12-07T06:47:42;3;3;
79689;PMS5003;69156;55.932;-3.238;2023-12-07T06:50:07;3;3;
79689;PMS5003;69156;55.932;-3.238;2023-12-07T06:52:32;2;2;
79689;PMS5003;69156;55.932;-3.238;2023-12-07T06:54:58;2;2;
79689;PMS5003;69156;55.932;-3.238;2023-12-07T06:57:24;2;2;
79689;PMS5003;69156;55.932;-3.238;2023-12-07T06:59:50;5;5;
79689;PMS5003;69156;55.932;-3.238;2023-12-07T07:02:16;5;3;
79689;PMS5003;69156;55.932;-3.238;2023-12-07T07:04:41;2;2;
79689;PMS5003;69156;55.932;-3.238;2023-12-07T07:07:07;3;3;
79689;PMS5003;69156;55.932;-3.238;2023-12-07T07:09:32;5;5;
79689;PMS5003;69156;55.932;-3.238;2023-12-07T07:11:58;3;3;
79689;PMS5003;69156;55.932;-3.238;2023-12-07T07:14:24;3;3;
79689;PMS5003;69156;55.932;-3.238;2023-12-07T07:16:50;3;3;
79689;PMS5003;69156;55.932;-3.238;2023-12-07T07:19:15;5;5;
79689;PMS5003;69156;55.932;-3.238;2023-12-07T07:21:41;2;2;
79689;PMS5003;69156;55.932;-3.238;2023-12-07T07:24:07;3;2;
79689;PMS5003;69156;55.932;-3.238;2023-12-07T07:26:32;2;2;
79689;PMS5003;69156;55.932;-3.238;2023-12-07T07:28:58;1;1;
79689;PMS5003;69156;55.932;-3.238;2023-12-07T07:31:23;2;2;
79689;PMS5003;69156;55.932;-3.238;2023-12-07T07:33:48;2;2;
79689;PMS5003;69156;55.932;-3.238;2023-12-07T07:36:14;3;3;
79689;PMS5003;69156;55.932;-3.238;2023-12-07T07:38:39;5;3;
79689;PMS5003;69156;55.932;-3.238;2023-12-07T07:41:05;2;2;
79689;PMS5003;69156;55.932;-3.238;2023-12-07T07:43:31;1;1;
79689;PMS5003;69156;55.932;-3.238;2023-12-07T07:45:56;2;2;
79689;PMS5003;69156;55.932;-3.238;2023-12-07T07:48:21;2;2;
79689;PMS5003;69156;55.932;-3.238;2023-12-07T07:50:48;2;2;
79689;PMS5003;69156;55.932;-3.238;2023-12-07T07:53:13;3;3;
79689;PMS5003;69156;55.932;-3.238;2023-12-07T07:55:39;2;2;
79689;PMS5003;69156;55.932;-3.238;2023-12-07T07:58:05;2;2;
79689;PMS5003;69156;55.932;-3.238;2023-12-07T08:00:30;2;1;
79689;PMS5003;69156;55.932;-3.238;2023-12-07T08:02:55;3;2;
79689;PMS5003;69156;55.932;-3.238;2023-12-07T08:05:20;3;2;
79689;PMS5003;69156;55.932;-3.238;2023-12-07T08:07:46;3;3;
79689;PMS5003;69156;55.932;-3.238;2023-12-07T08:10:12;2;2;
79689;PMS5003;69156;55.932;-3.238;2023-12-07T08:12:39;3;3;
79689;PMS5003;69156;55.932;-3.238;2023-12-07T08:15:04;2;2;
79689;PMS5003;69156;55.932;-3.238;2023-12-07T08:17:29;2;2;
79689;PMS5003;69156;55.932;-3.238;2023-12-07T08:19:54;3;3;
79689;PMS5003;69156;55.932;-3.238;2023-12-07T08:22:20;3;3;
79689;PMS5003;69156;55.932;-3.238;2023-12-07T08:24:50;3;2;
79689;PMS5003;69156;55.932;-3.238;2023-12-07T08:27:15;3;3;
79689;PMS5003;69156;55.932;-3.238;2023-12-07T08:29:42;3;3;
79689;PMS5003;69156;55.932;-3.238;2023-12-07T08:32:07;3;3;
79689;PMS5003;69156;55.932;-3.238;2023-12-07T08:34:33;5;3;
79689;PMS5003;69156;55.932;-3.238;2023-12-07T08:36:58;3;3;
79689;PMS5003;69156;55.932;-3.238;2023-12-07T08:39:23;3;3;
79689;PMS5003;69156;55.932;-3.238;2023-12-07T08:41:49;6;6;
79689;PMS5003;69156;55.932;-3.238;2023-12-07T08:44:14;5;5;
79689;PMS5003;69156;55.932;-3.238;2023-12-07T08:46:40;5;5;
79689;PMS5003;69156;55.932;-3.238;2023-12-07T08:49:05;3;3;
79689;PMS5003;69156;55.932;-3.238;2023-12-07T08:51:30;3;3;
79689;PMS5003;69156;55.932;-3.238;2023-12-07T08:53:57;2;2;
79689;PMS5003;69156;55.932;-3.238;2023-12-07T08:56:23;2;1;
79689;PMS5003;69156;55.932;-3.238;2023-12-07T08:58:49;3;3;
79689;PMS5003;69156;55.932;-3.238;2023-12-07T09:01:15;7;6;
79689;PMS5003;69156;55.932;-3.238;2023-12-07T09:03:41;6;6;
79689;PMS5003;69156;55.932;-3.238;2023-12-07T09:06:07;5;5;
79689;PMS5003;69156;55.932;-3.238;2023-12-07T09:08:32;8;7;
79689;PMS5003;69156;55.932;-3.238;2023-12-07T09:10:58;5;5;
79689;PMS5003;69156;55.932;-3.238;2023-12-07T09:13:24;3;3;
79689;PMS5003;69156;55.932;-3.238;2023-12-07T09:15:49;2;2;
79689;PMS5003;69156;55.932;-3.238;2023-12-07T09:18:14;3;3;
79689;PMS5003;69156;55.932;-3.238;2023-12-07T09:20:40;5;5;
79689;PMS5003;69156;55.932;-3.238;2023-12-07T09:23:05;5;5;
79689;PMS5003;69156;55.932;-3.238;2023-12-07T09:25:31;3;3;
79689;PMS5003;69156;55.932;-3.238;2023-12-07T09:27:57;3;3;
79689;PMS5003;69156;55.932;-3.238;2023-12-07T09:30:23;2;2;
79689;PMS5003;69156;55.932;-3.238;2023-12-07T09:32:48;3;3;
79689;PMS5003;69156;55.932;-3.238;2023-12-07T09:35:14;6;6;
79689;PMS5003;69156;55.932;-3.238;2023-12-07T09:37:40;6;6;
79689;PMS5003;69156;55.932;-3.238;2023-12-07T09:40:06;5;5;
79689;PMS5003;69156;55.932;-3.238;2023-12-07T09:42:32;3;3;
79689;PMS5003;69156;55.932;-3.238;2023-12-07T09:44:57;3;3;
79689;PMS5003;69156;55.932;-3.238;2023-12-07T09:47:22;3;3;
79689;PMS5003;69156;55.932;-3.238;2023-12-07T09:49:48;3;3;
79689;PMS5003;69156;55.932;-3.238;2023-12-07T09:52:13;3;3;
79689;PMS5003;69156;55.932;-3.238;2023-12-07T09:54:40;5;3;
79689;PMS5003;69156;55.932;-3.238;2023-12-07T09:57:04;3;3;
79689;PMS5003;69156;55.932;-3.238;2023-12-07T09:59:30;3;2;
79689;PMS5003;69156;55.932;-3.238;2023-12-07T10:01:56;3;3;
79689;PMS5003;69156;55.932;-3.238;2023-12-07T10:04:22;6;6;
79689;PMS5003;69156;55.932;-3.238;2023-12-07T10:06:47;5;5;
79689;PMS5003;69156;55.932;-3.238;2023-12-07T10:09:13;5;5;
79689;PMS5003;69156;55.932;-3.238;2023-12-07T10:11:38;3;3;
79689;PMS5003;69156;55.932;-3.238;2023-12-07T10:14:05;3;3;
79689;PMS5003;69156;55.932;-3.238;2023-12-07T10:16:29;3;3;
79689;PMS5003;69156;55.932;-3.238;2023-12-07T10:18:54;3;2;
79689;PMS5003;69156;55.932;-3.238;2023-12-07T10:21:24;5;5;
79689;PMS5003;69156;55.932;-3.238;2023-12-07T10:23:45;6;5;
79689;PMS5003;69156;55.932;-3.238;2023-12-07T10:26:11;5;5;
79689;PMS5003;69156;55.932;-3.238;2023-12-07T10:28:36;3;3;
79689;PMS5003;69156;55.932;-3.238;2023-12-07T10:31:01;6;6;
79689;PMS5003;69156;55.932;-3.238;2023-12-07T10:33:27;5;5;
79689;PMS5003;69156;55.932;-3.238;2023-12-07T10:35:53;5;3;
79689;PMS5003;69156;55.932;-3.238;2023-12-07T10:38:18;5;5;
79689;PMS5003;69156;55.932;-3.238;2023-12-07T10:40:43;2;2;
79689;PMS5003;69156;55.932;-3.238;2023-12-07T10:43:10;6;5;
79689;PMS5003;69156;55.932;-3.238;2023-12-07T10:45:35;6;6;
79689;PMS5003;69156;55.932;-3.238;2023-12-07T10:48:02;5;5;
79689;PMS5003;69156;55.932;-3.238;2023-12-07T10:50:26;5;5;
79689;PMS5003;69156;55.932;-3.238;2023-12-07T10:52:52;6;5;
79689;PMS5003;69156;55.932;-3.238;2023-12-07T10:55:19;7;7;
79689;PMS5003;69156;55.932;-3.238;2023-12-07T10:57:43;7;7;
79689;PMS5003;69156;55.932;-3.238;2023-12-07T11:00:10;9;7;
79689;PMS5003;69156;55.932;-3.238;2023-12-07T11:02:34;7;7;
79689;PMS5003;69156;55.932;-3.238;2023-12-07T11:05:00;6;5;
79689;PMS5003;69156;55.932;-3.238;2023-12-07T11:07:27;5;5;
79689;PMS5003;69156;55.932;-3.238;2023-12-07T11:09:53;7;7;
79689;PMS5003;69156;55.932;-3.238;2023-12-07T11:12:17;9;7;
79689;PMS5003;69156;55.932;-3.238;2023-12-07T11:14:41;6;6;
79689;PMS5003;69156;55.932;-3.238;2023-12-07T11:17:07;6;6;
79689;PMS5003;69156;55.932;-3.238;2023-12-07T11:19:48;11;9;
79689;PMS5003;69156;55.932;-3.238;2023-12-07T11:21:58;6;5;
79689;PMS5003;69156;55.932;-3.238;2023-12-07T11:24:23;7;7;
79689;PMS5003;69156;55.932;-3.238;2023-12-07T11:26:48;9;7;
79689;PMS5003;69156;55.932;-3.238;2023-12-07T11:29:14;7;7;
79689;PMS5003;69156;55.932;-3.238;2023-12-07T11:31:40;6;6;
79689;PMS5003;69156;55.932;-3.238;2023-12-07T11:34:06;7;7;
79689;PMS5003;69156;55.932;-3.238;2023-12-07T11:36:31;7;7;
79689;PMS5003;69156;55.932;-3.238;2023-12-07T11:39:29;7;7;
79689;PMS5003;69156;55.932;-3.238;2023-12-07T11:41:22;10;10;
79689;PMS5003;69156;55.932;-3.238;2023-12-07T11:43:48;7;7;
79689;PMS5003;69156;55.932;-3.238;2023-12-07T11:46:14;7;7;
79689;PMS5003;69156;55.932;-3.238;2023-12-07T11:48:39;6;6;
79689;PMS5003;69156;55.932;-3.238;2023-12-07T11:51:05;10;9;
79689;PMS5003;69156;55.932;-3.238;2023-12-07T11:53:31;8;8;
79689;PMS5003;69156;55.932;-3.238;2023-12-07T11:55:55;7;7;
79689;PMS5003;69156;55.932;-3.238;2023-12-07T11:58:21;8;8;
79689;PMS5003;69156;55.932;-3.238;2023-12-07T12:00:47;8;8;
79689;PMS5003;69156;55.932;-3.238;2023-12-07T12:03:12;8;8;
79689;PMS5003;69156;55.932;-3.238;2023-12-07T12:05:38;8;8;
79689;PMS5003;69156;55.932;-3.238;2023-12-07T12:08:03;10;10;
79689;PMS5003;69156;55.932;-3.238;2023-12-07T12:10:28;8;8;
79689;PMS5003;69156;55.932;-3.238;2023-12-07T12:12:53;10;10;
79689;PMS5003;69156;55.932;-3.238;2023-12-07T12:15:18;11;11;
79689;PMS5003;69156;55.932;-3.238;2023-12-07T12:17:43;11;11;
79689;PMS5003;69156;55.932;-3.238;2023-12-07T12:20:16;15;14;
79689;PMS5003;69156;55.932;-3.238;2023-12-07T12:22:36;12;12;
79689;PMS5003;69156;55.932;-3.238;2023-12-07T12:25:01;12;11;
79689;PMS5003;69156;55.932;-3.238;2023-12-07T12:27:26;10;10;
79689;PMS5003;69156;55.932;-3.238;2023-12-07T12:29:51;11;11;
79689;PMS5003;69156;55.932;-3.238;2023-12-07T12:32:17;15;14;
79689;PMS5003;69156;55.932;-3.238;2023-12-07T12:34:43;15;12;
79689;PMS5003;69156;55.932;-3.238;2023-12-07T12:37:08;14;14;
79689;PMS5003;69156;55.932;-3.238;2023-12-07T12:39:34;11;11;
79689;PMS5003;69156;55.932;-3.238;2023-12-07T12:42:00;13;13;
79689;PMS5003;69156;55.932;-3.238;2023-12-07T12:44:25;15;13;
79689;PMS5003;69156;55.932;-3.238;2023-12-07T12:46:51;14;14;
79689;PMS5003;69156;55.932;-3.238;2023-12-07T12:49:16;10;10;
79689;PMS5003;69156;55.932;-3.238;2023-12-07T12:51:43;14;14;
79689;PMS5003;69156;55.932;-3.238;2023-12-07T12:54:07;13;13;
79689;PMS5003;69156;55.932;-3.238;2023-12-07T12:56:33;14;14;
79689;PMS5003;69156;55.932;-3.238;2023-12-07T12:58:58;16;14;
79689;PMS5003;69156;55.932;-3.238;2023-12-07T13:01:23;11;10;
79689;PMS5003;69156;55.932;-3.238;2023-12-07T13:03:48;11;11;
79689;PMS5003;69156;55.932;-3.238;2023-12-07T13:06:13;11;11;
79689;PMS5003;69156;55.932;-3.238;2023-12-07T13:08:39;11;11;
79689;PMS5003;69156;55.932;-3.238;2023-12-07T13:11:04;13;11;
79689;PMS5003;69156;55.932;-3.238;2023-12-07T13:13:30;10;10;
79689;PMS5003;69156;55.932;-3.238;2023-12-07T13:15:56;14;14;
79689;PMS5003;69156;55.932;-3.238;2023-12-07T13:18:21;12;12;
79689;PMS5003;69156;55.932;-3.238;2023-12-07T13:20:46;14;12;
79689;PMS5003;69156;55.932;-3.238;2023-12-07T13:23:12;14;14;
79689;PMS5003;69156;55.932;-3.238;2023-12-07T13:25:38;13;13;
79689;PMS5003;69156;55.932;-3.238;2023-12-07T13:28:04;15;14;
79689;PMS5003;69156;55.932;-3.238;2023-12-07T13:30:30;15;14;
79689;PMS5003;69156;55.932;-3.238;2023-12-07T13:32:56;16;15;
79689;PMS5003;69156;55.932;-3.238;2023-12-07T13:35:21;13;13;
79689;PMS5003;69156;55.932;-3.238;2023-12-07T13:37:48;13;13;
79689;PMS5003;69156;55.932;-3.238;2023-12-07T13:40:13;14;14;
79689;PMS5003;69156;55.932;-3.238;2023-12-07T13:42:38;14;13;
79689;PMS5003;69156;55.932;-3.238;2023-12-07T13:45:04;15;15;
79689;PMS5003;69156;55.932;-3.238;2023-12-07T13:47:29;15;13;
79689;PMS5003;69156;55.932;-3.238;2023-12-07T13:49:55;15;14;
79689;PMS5003;69156;55.932;-3.238;2023-12-07T13:52:20;16;15;
79689;PMS5003;69156;55.932;-3.238;2023-12-07T13:54:45;16;16;
79689;PMS5003;69156;55.932;-3.238;2023-12-07T13:57:10;12;12;
79689;PMS5003;69156;55.932;-3.238;2023-12-07T13:59:41;16;15;
79689;PMS5003;69156;55.932;-3.238;2023-12-07T14:02:06;14;12;
79689;PMS5003;69156;55.932;-3.238;2023-12-07T14:04:31;14;12;
79689;PMS5003;69156;55.932;-3.238;2023-12-07T14:07:06;14;14;
79689;PMS5003;69156;55.932;-3.238;2023-12-07T14:09:23;16;16;
79689;PMS5003;69156;55.932;-3.238;2023-12-07T14:11:48;17;16;
79689;PMS5003;69156;55.932;-3.238;2023-12-07T14:14:15;15;15;
79689;PMS5003;69156;55.932;-3.238;2023-12-07T14:16:41;16;15;
79689;PMS5003;69156;55.932;-3.238;2023-12-07T14:19:06;15;14;
79689;PMS5003;69156;55.932;-3.238;2023-12-07T14:21:31;14;14;
79689;PMS5003;69156;55.932;-3.238;2023-12-07T14:23:56;14;11;
79689;PMS5003;69156;55.932;-3.238;2023-12-07T14:26:23;15;14;
79689;PMS5003;69156;55.932;-3.238;2023-12-07T14:28:49;16;16;
79689;PMS5003;69156;55.932;-3.238;2023-12-07T14:31:14;17;16;
79689;PMS5003;69156;55.932;-3.238;2023-12-07T14:33:40;16;16;
79689;PMS5003;69156;55.932;-3.238;2023-12-07T14:36:07;17;17;
79689;PMS5003;69156;55.932;-3.238;2023-12-07T14:38:31;18;17;
79689;PMS5003;69156;55.932;-3.238;2023-12-07T14:40:56;17;17;
79689;PMS5003;69156;55.932;-3.238;2023-12-07T14:43:21;16;16;
79689;PMS5003;69156;55.932;-3.238;2023-12-07T14:45:47;15;15;
79689;PMS5003;69156;55.932;-3.238;2023-12-07T14:48:12;15;15;
79689;PMS5003;69156;55.932;-3.238;2023-12-07T14:50:37;17;16;
79689;PMS5003;69156;55.932;-3.238;2023-12-07T14:53:04;20;18;
79689;PMS5003;69156;55.932;-3.238;2023-12-07T14:55:28;18;17;
79689;PMS5003;69156;55.932;-3.238;2023-12-07T14:57:54;17;17;
79689;PMS5003;69156;55.932;-3.238;2023-12-07T15:00:20;16;15;
79689;PMS5003;69156;55.932;-3.238;2023-12-07T15:02:46;20;18;
79689;PMS5003;69156;55.932;-3.238;2023-12-07T15:05:12;17;17;
79689;PMS5003;69156;55.932;-3.238;2023-12-07T15:07:37;20;17;
79689;PMS5003;69156;55.932;-3.238;2023-12-07T15:10:03;17;17;
79689;PMS5003;69156;55.932;-3.238;2023-12-07T15:12:28;19;19;
79689;PMS5003;69156;55.932;-3.238;2023-12-07T15:14:54;16;16;
79689;PMS5003;69156;55.932;-3.238;2023-12-07T15:17:19;17;16;
79689;PMS5003;69156;55.932;-3.238;2023-12-07T15:19:45;17;17;
79689;PMS5003;69156;55.932;-3.238;2023-12-07T15:22:10;17;17;
79689;PMS5003;69156;55.932;-3.238;2023-12-07T15:24:36;16;16;
79689;PMS5003;69156;55.932;-3.238;2023-12-07T15:27:02;21;21;
79689;PMS5003;69156;55.932;-3.238;2023-12-07T15:29:27;16;16;
79689;PMS5003;69156;55.932;-3.238;2023-12-07T15:31:53;21;21;
79689;PMS5003;69156;55.932;-3.238;2023-12-07T15:34:19;19;19;
79689;PMS5003;69156;55.932;-3.238;2023-12-07T15:36:44;16;16;
79689;PMS5003;69156;55.932;-3.238;2023-12-07T15:39:10;21;20;
79689;PMS5003;69156;55.932;-3.238;2023-12-07T15:41:36;21;20;
79689;PMS5003;69156;55.932;-3.238;2023-12-07T15:44:01;16;15;
79689;PMS5003;69156;55.932;-3.238;2023-12-07T15:46:27;19;19;
79689;PMS5003;69156;55.932;-3.238;2023-12-07T15:48:52;18;16;
79689;PMS5003;69156;55.932;-3.238;2023-12-07T15:51:18;19;19;
79689;PMS5003;69156;55.932;-3.238;2023-12-07T15:53:44;23;18;
79689;PMS5003;69156;55.932;-3.238;2023-12-07T15:56:11;18;18;
79689;PMS5003;69156;55.932;-3.238;2023-12-07T15:58:36;16;15;
79689;PMS5003;69156;55.932;-3.238;2023-12-07T16:01:01;15;15;
79689;PMS5003;69156;55.932;-3.238;2023-12-07T16:03:26;20;19;
79689;PMS5003;69156;55.932;-3.238;2023-12-07T16:05:51;15;15;
79689;PMS5003;69156;55.932;-3.238;2023-12-07T16:08:17;16;15;
79689;PMS5003;69156;55.932;-3.238;2023-12-07T16:10:43;14;13;
79689;PMS5003;69156;55.932;-3.238;2023-12-07T16:13:08;14;14;